Time;durP1;ratioP1;P1;durP2;ratioP2;P2;SDS_P1;SDS_P2;PMS_P1;PMS_P2;Temp;Humidity;BMP_temperature;BMP_pressure;BME280_temperature;BME280_humidity;BME280_pressure;Samples;Min_cycle;Max_cycle;Signal;HPM_P1;HPM_P2
2024/01/27 00:02:31;;;;;;;27.40;16.40;;;;;;;1.08;87.80;100246.81;214075;1270;61247;-71
2024/01/27 00:07:25;;;;;;;20.30;13.80;;;;;;;1.29;88.99;100256.89;214131;1268;61367;-71
2024/01/27 00:12:18;;;;;;;22.20;13.50;;;;;;;1.53;89.18;100270.95;214065;1270;61445;-72
2024/01/27 00:17:11;;;;;;;18.70;11.10;;;;;;;1.77;90.52;100271.90;214063;1269;65576;-72
2024/01/27 00:22:03;;;;;;;11.90;7.50;;;;;;;2.00;90.66;100283.85;214148;1269;61322;-72
2024/01/27 00:26:56;;;;;;;10.80;7.00;;;;;;;2.19;91.33;100293.39;214152;1269;61418;-72
2024/01/27 00:31:50;;;;;;;8.60;4.70;;;;;;;2.32;90.95;100304.55;214051;1272;61293;-72
2024/01/27 00:36:48;;;;;;;7.60;4.20;;;;;;;2.41;91.30;100320.35;214010;1269;61303;-72
2024/01/27 00:41:41;;;;;;;6.40;3.20;;;;;;;2.49;91.00;100327.39;214107;1270;67319;-72
2024/01/27 00:46:34;;;;;;;4.50;2.00;;;;;;;2.54;90.42;100337.48;214190;1272;61297;-72
2024/01/27 00:51:27;;;;;;;7.80;1.70;;;;;;;2.57;90.74;100343.64;214138;1270;61409;-72
2024/01/27 00:56:20;;;;;;;7.10;2.00;;;;;;;2.59;90.75;100359.95;214170;1268;61992;-72
2024/01/27 01:01:13;;;;;;;8.70;2.60;;;;;;;2.61;90.51;100369.64;213984;1270;61377;-74
2024/01/27 01:06:35;;;;;;;7.70;1.70;;;;;;;2.64;90.77;100374.55;213912;1270;66176;-74
2024/01/27 01:11:29;;;;;;;8.40;2.00;;;;;;;2.68;90.39;100385.15;214099;1272;61256;-72
2024/01/27 01:16:22;;;;;;;8.90;2.20;;;;;;;2.71;90.34;100394.02;214129;1268;61284;-72
2024/01/27 01:21:14;;;;;;;5.50;1.90;;;;;;;2.73;90.25;100398.20;214199;1268;61268;-72
2024/01/27 01:26:07;;;;;;;8.30;2.60;;;;;;;2.73;90.26;100407.63;214172;1268;61377;-72
2024/01/27 01:31:00;;;;;;;10.80;3.30;;;;;;;2.74;89.98;100410.74;214124;1268;61365;-72
2024/01/27 01:35:53;;;;;;;8.70;2.00;;;;;;;2.74;90.02;100419.48;213888;1268;198867;-72
2024/01/27 01:40:46;;;;;;;10.70;2.30;;;;;;;2.77;89.96;100421.98;213986;1268;61294;-72
2024/01/27 01:45:39;;;;;;;11.90;3.50;;;;;;;2.78;89.95;100422.73;214038;1268;61374;-72
2024/01/27 01:50:32;;;;;;;8.60;2.50;;;;;;;2.80;89.58;100428.31;214060;1268;61230;-72
2024/01/27 01:55:25;;;;;;;6.20;2.00;;;;;;;2.81;89.46;100437.10;214119;1272;61406;-73
2024/01/27 02:00:18;;;;;;;8.50;2.50;;;;;;;2.82;89.57;100437.95;214129;1267;61394;-72
2024/01/27 02:05:14;;;;;;;5.30;1.50;;;;;;;2.83;88.97;100443.01;214010;1268;61310;-72
2024/01/27 02:10:14;;;;;;;12.70;2.60;;;;;;;2.85;88.78;100448.90;214066;1268;71852;-73
2024/01/27 02:15:13;;;;;;;9.90;2.70;;;;;;;2.88;88.84;100451.23;214249;1268;61352;-72
2024/01/27 02:20:08;;;;;;;9.80;2.50;;;;;;;2.90;88.76;100457.00;214178;1268;67021;-72
2024/01/27 02:25:01;;;;;;;11.90;3.10;;;;;;;2.92;88.59;100460.85;214058;1270;61270;-73
2024/01/27 02:29:54;;;;;;;8.00;1.70;;;;;;;2.94;88.68;100466.42;214168;1268;74668;-72
2024/01/27 02:34:47;;;;;;;8.30;2.80;;;;;;;2.95;88.52;100468.85;214133;1270;61284;-72
2024/01/27 02:39:40;;;;;;;7.90;2.70;;;;;;;2.97;88.46;100472.34;214112;1272;61309;-72
2024/01/27 02:44:33;;;;;;;6.40;2.50;;;;;;;2.97;88.22;100473.73;214124;1270;66896;-72
2024/01/27 02:49:25;;;;;;;10.50;2.80;;;;;;;2.98;88.45;100477.39;214148;1268;61311;-72
2024/01/27 02:54:18;;;;;;;8.20;2.70;;;;;;;2.99;88.24;100481.52;214019;1268;61378;-72
2024/01/27 02:59:12;;;;;;;8.90;3.10;;;;;;;3.00;88.31;100486.86;214074;1270;61315;-72
2024/01/27 03:04:05;;;;;;;12.20;2.50;;;;;;;3.02;88.16;100492.27;214082;1268;61273;-71
2024/01/27 03:08:58;;;;;;;9.50;2.80;;;;;;;3.03;87.85;100497.95;214085;1268;66003;-70
2024/01/27 03:13:51;;;;;;;9.40;2.30;;;;;;;3.04;87.93;100502.98;214090;1268;61267;-70
2024/01/27 03:18:44;;;;;;;11.50;2.40;;;;;;;3.05;87.90;100504.73;214103;1268;61296;-70
2024/01/27 03:23:37;;;;;;;10.60;2.80;;;;;;;3.06;87.85;100502.89;214134;1268;61306;-70
2024/01/27 03:28:29;;;;;;;6.80;2.20;;;;;;;3.08;87.94;100513.73;214115;1268;61291;-70
2024/01/27 03:33:23;;;;;;;11.20;2.60;;;;;;;3.09;87.68;100515.68;214090;1268;61435;-70
2024/01/27 03:38:16;;;;;;;11.00;3.10;;;;;;;3.11;87.45;100519.00;214041;1268;61319;-71
2024/01/27 03:43:08;;;;;;;11.20;3.20;;;;;;;3.12;87.28;100521.61;214008;1268;61470;-70
2024/01/27 03:48:01;;;;;;;8.50;2.60;;;;;;;3.12;87.42;100519.39;214125;1268;61927;-71
2024/01/27 03:52:54;;;;;;;13.50;3.00;;;;;;;3.11;87.40;100527.08;214145;1268;61411;-70
2024/01/27 03:57:47;;;;;;;8.90;3.60;;;;;;;3.12;87.30;100529.00;214116;1268;61257;-70
2024/01/27 04:02:40;;;;;;;13.20;3.70;;;;;;;3.13;86.92;100536.06;214103;1272;61383;-70
2024/01/27 04:07:33;;;;;;;17.50;3.60;;;;;;;3.13;86.74;100540.52;214099;1268;61298;-70
2024/01/27 04:12:25;;;;;;;15.80;3.80;;;;;;;3.14;86.61;100544.31;214093;1268;61351;-71
2024/01/27 04:17:18;;;;;;;12.30;3.30;;;;;;;3.13;86.55;100546.67;214142;1268;61365;-70
2024/01/27 04:22:11;;;;;;;11.60;2.70;;;;;;;3.14;86.32;100552.02;214008;1271;61408;-70
2024/01/27 04:27:04;;;;;;;17.20;3.90;;;;;;;3.15;86.48;100554.63;214115;1268;61275;-71
2024/01/27 04:31:57;;;;;;;22.40;5.50;;;;;;;3.14;86.60;100564.38;214159;1268;61482;-70
2024/01/27 04:36:49;;;;;;;12.50;3.80;;;;;;;3.12;86.59;100566.67;214109;1272;61299;-70
2024/01/27 04:41:43;;;;;;;11.20;3.40;;;;;;;3.11;86.34;100566.79;214147;1268;61290;-70
2024/01/27 04:46:36;;;;;;;11.80;3.10;;;;;;;3.10;86.49;100570.02;214079;1268;72759;-70
2024/01/27 04:51:29;;;;;;;12.10;3.30;;;;;;;3.10;86.28;100570.89;214209;1268;61405;-71
2024/01/27 04:56:22;;;;;;;8.00;2.60;;;;;;;3.12;86.16;100574.89;214089;1268;61303;-70
2024/01/27 05:01:15;;;;;;;11.10;3.90;;;;;;;3.11;86.07;100579.66;214039;1268;61281;-71
2024/01/27 05:06:10;;;;;;;11.10;3.30;;;;;;;3.12;86.22;100580.55;214081;1268;61324;-70
2024/01/27 05:11:04;;;;;;;12.50;3.80;;;;;;;3.12;85.96;100582.61;214084;1268;73740;-70
2024/01/27 05:15:57;;;;;;;11.00;4.00;;;;;;;3.12;85.95;100588.95;214083;1268;61296;-70
2024/01/27 05:20:49;;;;;;;9.40;3.40;;;;;;;3.13;86.04;100592.42;214110;1268;61255;-70
2024/01/27 05:25:42;;;;;;;13.20;2.90;;;;;;;3.13;86.03;100591.03;214177;1268;61399;-70
2024/01/27 05:30:35;;;;;;;16.40;3.90;;;;;;;3.12;86.18;100595.95;214123;1268;61304;-70
2024/01/27 05:35:28;;;;;;;15.30;3.80;;;;;;;3.08;86.07;100592.20;214078;1268;61938;-71
2024/01/27 05:40:21;;;;;;;15.40;3.20;;;;;;;3.06;86.13;100591.92;214034;1268;61300;-70
2024/01/27 05:45:13;;;;;;;15.00;4.50;;;;;;;3.03;86.32;100587.56;213992;1268;61450;-70
2024/01/27 05:50:08;;;;;;;16.00;3.80;;;;;;;3.02;86.06;100586.13;214105;1268;61279;-70
2024/01/27 05:55:01;;;;;;;15.40;4.40;;;;;;;3.02;86.17;100591.09;214115;1270;72801;-70
2024/01/27 05:59:54;;;;;;;15.70;3.50;;;;;;;3.01;86.47;100593.80;214069;1268;61400;-71
2024/01/27 06:04:47;;;;;;;13.90;4.40;;;;;;;3.00;86.68;100592.35;214159;1268;61281;-70
2024/01/27 06:09:40;;;;;;;18.50;3.90;;;;;;;2.98;86.82;100595.02;214190;1268;65865;-70
2024/01/27 06:14:33;;;;;;;9.60;3.30;;;;;;;2.96;86.72;100600.92;214157;1268;62567;-71
2024/01/27 06:19:25;;;;;;;15.20;7.10;;;;;;;2.93;86.69;100596.14;214055;1270;61293;-71
2024/01/27 06:24:18;;;;;;;13.70;3.60;;;;;;;2.91;86.90;100596.23;214137;1268;61403;-70
2024/01/27 06:29:11;;;;;;;14.60;3.60;;;;;;;2.91;86.59;100603.24;214076;1272;61290;-70
2024/01/27 06:34:04;;;;;;;12.20;3.30;;;;;;;2.91;86.71;100604.95;214178;1268;61363;-70
2024/01/27 06:38:57;;;;;;;17.20;4.10;;;;;;;2.90;86.99;100607.15;214121;1268;61357;-71
2024/01/27 06:43:50;;;;;;;11.30;3.80;;;;;;;2.90;86.88;100610.88;214034;1268;61370;-71
2024/01/27 06:48:43;;;;;;;10.60;2.60;;;;;;;2.88;86.72;100620.08;214036;1268;61302;-71
2024/01/27 06:53:36;;;;;;;14.90;3.90;;;;;;;2.87;86.78;100624.31;214049;1268;61274;-70
2024/01/27 06:58:29;;;;;;;8.90;4.20;;;;;;;2.85;87.07;100625.91;214013;1268;61904;-71
2024/01/27 07:03:22;;;;;;;10.30;3.70;;;;;;;2.82;87.02;100623.91;214086;1269;61279;-70
2024/01/27 07:08:16;;;;;;;10.50;3.10;;;;;;;2.80;87.13;100624.50;214070;1268;62608;-70
2024/01/27 07:13:09;;;;;;;9.30;3.70;;;;;;;2.79;87.51;100628.88;214134;1268;72433;-70
2024/01/27 07:18:01;;;;;;;15.20;5.00;;;;;;;2.76;87.71;100634.04;214138;1268;61409;-70
2024/01/27 07:22:54;;;;;;;9.90;3.60;;;;;;;2.74;87.42;100635.47;214086;1268;61291;-71
2024/01/27 07:27:47;;;;;;;6.10;3.20;;;;;;;2.70;87.86;100635.14;214149;1268;61376;-70
2024/01/27 07:32:41;;;;;;;12.90;3.80;;;;;;;2.67;87.54;100638.95;214074;1268;72347;-71
2024/01/27 07:37:34;;;;;;;13.50;4.00;;;;;;;2.66;88.05;100641.83;214064;1268;73022;-71
2024/01/27 07:42:26;;;;;;;14.00;4.00;;;;;;;2.66;88.02;100646.27;213988;1268;61412;-70
2024/01/27 07:47:19;;;;;;;13.10;5.30;;;;;;;2.67;87.97;100650.91;213980;1268;61444;-71
2024/01/27 07:52:12;;;;;;;18.70;4.80;;;;;;;2.66;88.39;100652.45;214158;1268;61276;-72
2024/01/27 07:57:06;;;;;;;13.20;4.80;;;;;;;2.71;88.50;100652.48;214150;1268;61401;-73
2024/01/27 08:02:00;;;;;;;12.10;3.60;;;;;;;2.75;88.28;100656.42;214092;1272;71359;-72
2024/01/27 08:06:54;;;;;;;9.90;4.30;;;;;;;2.77;88.41;100664.02;214084;1268;61345;-72
2024/01/27 08:11:51;;;;;;;11.70;4.20;;;;;;;2.79;88.72;100665.69;214066;1268;66130;-72
2024/01/27 08:16:44;;;;;;;;;;;;;;;2.80;88.60;100669.66;213991;1268;61278;-72
2024/01/27 08:21:37;;;;;;;9.60;4.20;;;;;;;2.84;88.16;100668.34;214104;1268;61442;-72
2024/01/27 08:26:30;;;;;;;12.40;4.00;;;;;;;2.91;88.30;100672.25;214009;1268;61394;-71
2024/01/27 08:31:23;;;;;;;13.10;4.70;;;;;;;2.99;88.20;100678.44;214034;1268;61350;-71
2024/01/27 08:36:16;;;;;;;7.70;4.00;;;;;;;3.01;88.28;100683.49;214051;1268;61370;-71
2024/01/27 08:41:09;;;;;;;7.20;3.70;;;;;;;3.00;87.88;100683.27;213978;1271;61314;-71
2024/01/27 08:46:01;;;;;;;9.00;4.90;;;;;;;2.98;88.14;100690.70;214009;1268;61380;-71
2024/01/27 08:50:54;;;;;;;6.70;4.10;;;;;;;2.98;88.07;100701.15;214018;1268;61412;-71
2024/01/27 08:55:47;;;;;;;7.40;3.50;;;;;;;3.02;88.28;100705.81;214019;1268;61302;-71
2024/01/27 09:00:40;;;;;;;8.10;4.10;;;;;;;3.06;88.09;100709.43;214010;1268;61314;-71
2024/01/27 09:05:32;;;;;;;10.10;3.50;;;;;;;3.10;88.27;100717.98;213911;1272;61268;-71
2024/01/27 09:10:25;;;;;;;11.20;4.40;;;;;;;3.13;87.88;100722.05;214061;1268;61257;-72
2024/01/27 09:15:20;;;;;;;9.90;5.10;;;;;;;3.15;87.88;100726.94;214046;1268;61348;-71
2024/01/27 09:20:15;;;;;;;10.10;5.40;;;;;;;3.19;87.98;100732.27;213981;1270;61460;-72
2024/01/27 09:25:08;;;;;;;7.50;3.90;;;;;;;3.19;88.00;100740.36;213955;1268;65911;-71
2024/01/27 09:30:01;;;;;;;6.90;3.70;;;;;;;3.24;87.97;100738.52;213926;1268;61268;-70
2024/01/27 09:34:54;;;;;;;7.00;4.50;;;;;;;3.27;87.85;100741.40;214050;1268;73431;-71
2024/01/27 09:39:47;;;;;;;9.70;5.10;;;;;;;3.26;87.88;100748.23;213970;1268;61300;-72
2024/01/27 09:44:43;;;;;;;7.50;5.00;;;;;;;3.25;88.04;100755.73;213916;1270;61302;-71
2024/01/27 09:49:38;;;;;;;6.50;4.30;;;;;;;3.26;88.17;100762.29;213946;1270;65981;-71
2024/01/27 09:54:31;;;;;;;8.90;5.70;;;;;;;3.37;88.22;100762.77;213848;1273;61329;-71
2024/01/27 09:59:26;;;;;;;12.70;5.10;;;;;;;3.42;88.23;100765.59;214008;1272;61313;-71
2024/01/27 10:04:21;;;;;;;9.30;4.10;;;;;;;3.41;88.22;100768.28;213860;1268;73291;-71
2024/01/27 10:09:13;;;;;;;11.80;4.60;;;;;;;3.42;88.25;100765.42;214006;1268;61369;-71
2024/01/27 10:14:06;;;;;;;7.20;4.20;;;;;;;3.46;88.36;100777.04;214003;1268;61448;-72
2024/01/27 10:19:03;;;;;;;9.00;4.90;;;;;;;3.42;88.63;100782.39;213917;1268;61460;-71
2024/01/27 10:23:56;;;;;;;;;;;;;;;3.42;88.64;100794.05;214030;1271;75018;-71
2024/01/27 10:28:56;;;;;;;8.20;3.70;;;;;;;3.45;88.66;100798.81;213965;1268;61916;-71
2024/01/27 10:33:56;;;;;;;7.30;3.70;;;;;;;3.47;88.71;100808.45;214062;1268;61351;-71
2024/01/27 10:38:49;;;;;;;7.30;3.30;;;;;;;3.48;88.59;100816.89;214014;1268;66873;-71
2024/01/27 10:43:43;;;;;;;4.40;3.30;;;;;;;3.49;88.53;100822.77;213889;1268;61505;-71
2024/01/27 10:48:36;;;;;;;6.30;3.50;;;;;;;3.53;88.61;100824.67;213966;1268;73728;-71
2024/01/27 10:53:35;;;;;;;5.00;3.30;;;;;;;3.54;88.79;100827.34;214001;1268;71109;-72
2024/01/27 10:58:30;;;;;;;5.30;3.00;;;;;;;3.57;88.74;100835.52;213990;1268;61364;-71
2024/01/27 11:03:25;;;;;;;3.20;2.90;;;;;;;3.65;88.63;100837.05;213967;1268;66826;-71
2024/01/27 11:08:19;;;;;;;6.30;2.80;;;;;;;3.70;88.70;100843.84;213909;1270;61243;-71
2024/01/27 11:13:12;;;;;;;5.00;3.20;;;;;;;3.73;88.41;100848.27;214050;1272;74890;-71
2024/01/27 11:18:05;;;;;;;5.50;3.10;;;;;;;3.79;88.62;100859.51;213952;1268;61388;-71
2024/01/27 11:23:14;;;;;;;4.70;3.20;;;;;;;3.84;88.44;100863.84;214036;1270;61238;-71
2024/01/27 11:28:14;;;;;;;5.40;4.60;;;;;;;3.80;88.21;100878.95;214045;1268;65881;-71
2024/01/27 11:33:08;;;;;;;4.70;3.90;;;;;;;3.77;88.26;100890.64;214016;1272;61297;-71
2024/01/27 11:38:01;;;;;;;5.20;4.30;;;;;;;3.69;88.20;100892.12;214070;1267;74504;-71
2024/01/27 11:43:01;;;;;;;4.40;3.80;;;;;;;3.62;88.51;100903.28;214062;1271;61325;-71
2024/01/27 11:48:01;;;;;;;5.80;5.00;;;;;;;3.61;88.52;100907.54;214070;1268;61271;-71
2024/01/27 11:52:57;;;;;;;6.50;4.90;;;;;;;3.60;88.81;100922.57;213972;1271;65985;-72
2024/01/27 11:57:51;;;;;;;5.40;4.60;;;;;;;3.59;88.66;100930.22;213765;1268;61342;-71
2024/01/27 12:02:44;;;;;;;5.70;5.00;;;;;;;3.56;88.71;100936.77;213959;1268;74609;-73
2024/01/27 12:07:37;;;;;;;7.20;4.80;;;;;;;3.53;88.69;100950.14;213845;1269;61320;-72
2024/01/27 12:12:29;;;;;;;9.20;5.00;;;;;;;3.47;88.65;100954.83;213869;1268;63059;-71
2024/01/27 12:17:23;;;;;;;7.00;4.90;;;;;;;3.41;88.54;100964.35;213867;1268;61262;-71
2024/01/27 12:22:30;;;;;;;4.20;3.80;;;;;;;3.36;88.46;100972.11;214039;1271;61967;-72
2024/01/27 12:27:24;;;;;;;6.50;4.40;;;;;;;3.32;88.33;100978.61;213918;1268;74493;-72
2024/01/27 12:32:18;;;;;;;4.90;4.40;;;;;;;3.32;88.60;100990.09;213681;1268;72091;-71
2024/01/27 12:37:13;;;;;;;7.00;5.90;;;;;;;3.31;88.43;100999.11;214633;1272;61350;-71
2024/01/27 12:42:06;;;;;;;5.90;3.30;;;;;;;3.29;88.48;101015.61;213833;1271;64880;-71
2024/01/27 12:47:00;;;;;;;3.40;3.10;;;;;;;3.26;88.23;101030.35;213637;1268;61252;-72
2024/01/27 12:51:55;;;;;;;3.20;2.90;;;;;;;3.24;88.14;101046.20;213732;1268;73532;-71
2024/01/27 12:56:48;;;;;;;3.80;3.40;;;;;;;3.25;88.30;101058.56;213696;1268;61405;-71
2024/01/27 13:01:41;;;;;;;5.60;3.60;;;;;;;3.26;88.45;101066.53;213600;1268;61358;-71
2024/01/27 13:06:34;;;;;;;4.80;3.60;;;;;;;3.27;88.34;101078.73;213529;1268;65638;-71
2024/01/27 13:11:27;;;;;;;3.80;3.40;;;;;;;3.26;88.50;101088.78;213668;1268;61300;-70
2024/01/27 13:16:20;;;;;;;4.90;3.50;;;;;;;3.23;88.29;101095.52;213686;1268;61870;-70
2024/01/27 13:21:14;;;;;;;6.20;3.50;;;;;;;3.24;88.57;101104.14;213733;1268;71649;-71
2024/01/27 13:26:07;;;;;;;6.00;3.90;;;;;;;3.27;88.46;101105.48;213736;1271;61362;-71
2024/01/27 13:31:10;;;;;;;4.00;3.40;;;;;;;3.28;88.28;101118.39;213725;1268;67333;-71
2024/01/27 13:36:03;;;;;;;5.80;3.50;;;;;;;3.30;88.10;101126.70;213589;1272;208171;-71
2024/01/27 13:40:56;;;;;;;4.20;3.20;;;;;;;3.34;87.86;101134.45;213743;1273;61248;-71
2024/01/27 13:45:51;;;;;;;3.90;3.30;;;;;;;3.39;88.06;101140.40;213688;1268;61434;-71
2024/01/27 13:50:45;;;;;;;4.20;3.50;;;;;;;3.40;87.89;101148.50;213679;1268;61395;-71
2024/01/27 13:55:40;;;;;;;3.70;3.10;;;;;;;3.36;87.89;101157.20;213796;1268;66918;-71
2024/01/27 14:00:34;;;;;;;5.40;3.60;;;;;;;3.33;87.66;101162.32;213707;1268;61291;-71
2024/01/27 14:05:27;;;;;;;4.30;3.10;;;;;;;3.33;87.64;101167.81;213787;1268;74660;-71
2024/01/27 14:10:20;;;;;;;3.00;2.80;;;;;;;3.35;87.71;101182.85;213545;1272;61260;-71
2024/01/27 14:15:14;;;;;;;3.90;2.90;;;;;;;3.35;87.40;101196.67;213555;1272;61299;-71
2024/01/27 14:20:09;;;;;;;3.20;2.70;;;;;;;3.32;87.30;101204.44;213590;1268;66149;-71
2024/01/27 14:25:02;;;;;;;3.50;3.00;;;;;;;3.31;87.05;101211.90;213795;1268;61754;-71
2024/01/27 14:29:58;;;;;;;4.90;3.70;;;;;;;3.30;87.39;101226.77;213854;1268;61362;-71
2024/01/27 14:34:51;;;;;;;3.40;3.00;;;;;;;3.29;87.53;101235.11;213606;1271;71419;-69
2024/01/27 14:39:45;;;;;;;3.80;3.20;;;;;;;3.27;87.04;101244.61;213683;1268;61290;-71
2024/01/27 14:44:38;;;;;;;3.80;3.30;;;;;;;3.24;87.25;101256.08;213579;1268;65613;-71
2024/01/27 14:49:31;;;;;;;5.40;3.30;;;;;;;3.22;87.06;101260.23;213791;1273;61296;-71
2024/01/27 14:54:24;;;;;;;3.70;2.80;;;;;;;3.19;86.70;101275.13;213832;1268;61731;-71
2024/01/27 14:59:17;;;;;;;2.80;2.50;;;;;;;3.13;86.73;101283.05;213554;1268;61285;-71
2024/01/27 15:04:09;;;;;;;2.90;2.60;;;;;;;3.07;86.85;101295.05;213612;1271;61390;-71
2024/01/27 15:09:03;;;;;;;3.20;2.40;;;;;;;3.01;87.00;101302.43;213732;1269;61283;-70
2024/01/27 15:13:56;;;;;;;2.90;2.00;;;;;;;2.95;86.83;101312.86;213690;1272;61397;-71
2024/01/27 15:18:50;;;;;;;2.00;1.80;;;;;;;2.88;87.02;101322.06;213821;1271;74524;-71
2024/01/27 15:23:43;;;;;;;3.30;2.40;;;;;;;2.83;87.43;101333.08;213822;1268;72670;-71
2024/01/27 15:28:36;;;;;;;3.30;2.40;;;;;;;2.83;87.53;101345.20;213808;1268;64156;-71
2024/01/27 15:33:37;;;;;;;3.60;2.50;;;;;;;2.81;87.47;101359.13;213520;1268;61348;-74
2024/01/27 15:38:53;;;;;;;3.60;2.50;;;;;;;2.78;87.38;101371.98;214173;1268;61352;-71
2024/01/27 15:43:48;;;;;;;2.80;1.90;;;;;;;2.76;87.27;101385.73;213875;1271;61917;-71
2024/01/27 15:48:41;;;;;;;2.20;2.00;;;;;;;2.74;87.27;101401.04;213877;1273;72323;-73
2024/01/27 15:53:34;;;;;;;2.30;2.00;;;;;;;2.69;87.23;101411.51;213931;1268;59882;-71
2024/01/27 15:58:27;;;;;;;3.90;3.10;;;;;;;2.60;87.26;101421.27;213869;1268;61441;-71
2024/01/27 16:03:20;;;;;;;3.60;2.50;;;;;;;2.57;87.34;101430.30;213924;1268;61293;-72
2024/01/27 16:08:13;;;;;;;4.60;3.10;;;;;;;2.52;87.16;101440.44;213968;1268;61961;-71
2024/01/27 16:13:06;;;;;;;4.10;2.60;;;;;;;2.49;87.48;101450.52;213822;1273;62052;-71
2024/01/27 16:17:58;;;;;;;2.70;2.50;;;;;;;2.46;87.44;101462.70;213975;1268;61271;-70
2024/01/27 16:22:51;;;;;;;7.60;4.30;;;;;;;2.44;87.74;101466.84;214039;1272;61297;-70
2024/01/27 16:27:44;;;;;;;4.70;3.50;;;;;;;2.42;87.61;101480.23;213946;1268;61275;-71
2024/01/27 16:32:37;;;;;;;4.30;3.80;;;;;;;2.40;87.67;101485.07;214070;1268;61273;-71
2024/01/27 16:37:30;;;;;;;5.70;5.20;;;;;;;2.39;87.86;101493.02;214047;1270;61295;-71
2024/01/27 16:42:23;;;;;;;5.70;5.10;;;;;;;2.35;87.76;101499.25;213962;1273;61285;-71
2024/01/27 16:47:18;;;;;;;7.90;6.80;;;;;;;2.31;87.94;101506.39;213867;1273;61303;-71
2024/01/27 16:52:12;;;;;;;8.60;7.70;;;;;;;2.27;88.30;101521.93;213978;1272;61310;-71
2024/01/27 16:57:05;;;;;;;10.00;8.40;;;;;;;2.25;88.31;101537.55;214002;1272;73356;-71
2024/01/27 17:01:59;;;;;;;10.90;9.10;;;;;;;2.21;88.36;101545.15;213949;1269;72085;-71
2024/01/27 17:06:55;;;;;;;11.10;8.20;;;;;;;2.18;88.45;101548.52;213969;1268;61233;-70
2024/01/27 17:11:48;;;;;;;11.10;8.30;;;;;;;2.16;88.46;101548.39;213946;1268;67101;-71
2024/01/27 17:16:41;;;;;;;10.40;7.70;;;;;;;2.14;88.51;101552.73;214017;1268;61355;-71
2024/01/27 17:21:34;;;;;;;9.90;8.40;;;;;;;2.14;88.73;101561.91;214003;1271;61293;-71
2024/01/27 17:26:29;;;;;;;9.60;8.40;;;;;;;2.14;88.81;101569.46;213967;1272;72612;-71
2024/01/27 17:31:22;;;;;;;9.60;8.30;;;;;;;2.12;88.84;101567.98;214025;1270;61291;-71
2024/01/27 17:36:15;;;;;;;8.90;7.40;;;;;;;2.09;88.86;101576.51;213948;1268;64751;-70
2024/01/27 17:41:08;;;;;;;8.60;7.40;;;;;;;2.08;88.89;101583.48;214011;1270;61361;-71
2024/01/27 17:46:01;;;;;;;9.70;8.80;;;;;;;2.05;89.12;101595.58;213996;1268;61242;-71
2024/01/27 17:50:55;;;;;;;10.90;9.30;;;;;;;2.03;89.20;101601.23;213933;1273;61353;-72
2024/01/27 17:55:48;;;;;;;10.60;8.90;;;;;;;2.01;89.18;101604.15;213955;1273;61389;-72
2024/01/27 18:00:41;;;;;;;13.30;9.40;;;;;;;2.00;89.09;101605.51;214040;1272;61301;-71
2024/01/27 18:05:34;;;;;;;12.90;10.40;;;;;;;2.00;89.19;101616.58;213857;1271;64142;-71
2024/01/27 18:10:27;;;;;;;13.10;10.20;;;;;;;2.00;89.48;101623.47;214026;1268;61665;-71
2024/01/27 18:15:20;;;;;;;15.00;10.80;;;;;;;2.01;89.62;101623.05;213977;1268;61284;-71
2024/01/27 18:20:13;;;;;;;15.90;12.80;;;;;;;2.04;90.13;101629.67;214017;1268;61279;-71
2024/01/27 18:25:08;;;;;;;20.90;14.70;;;;;;;2.03;89.74;101632.91;214052;1272;61352;-71
2024/01/27 18:30:03;;;;;;;16.10;13.40;;;;;;;2.04;89.92;101639.41;214045;1272;61341;-72
2024/01/27 18:34:56;;;;;;;17.90;12.80;;;;;;;2.03;90.06;101646.23;214076;1272;74433;-72
2024/01/27 18:39:49;;;;;;;18.50;13.60;;;;;;;2.05;90.03;101652.85;214024;1272;71086;-72
2024/01/27 18:44:42;;;;;;;17.30;13.30;;;;;;;2.05;90.25;101660.02;214081;1272;61264;-72
2024/01/27 18:49:35;;;;;;;17.90;13.60;;;;;;;2.03;90.24;101668.99;213984;1270;67059;-71
2024/01/27 18:54:28;;;;;;;16.70;12.60;;;;;;;2.03;90.17;101672.27;214089;1272;61354;-72
2024/01/27 18:59:21;;;;;;;19.80;12.80;;;;;;;2.05;90.10;101681.90;214017;1269;61284;-71
2024/01/27 19:04:15;;;;;;;18.80;13.20;;;;;;;2.06;90.25;101684.56;213932;1270;72724;-71
2024/01/27 19:09:08;;;;;;;18.70;12.60;;;;;;;2.08;90.24;101694.45;214092;1270;61309;-71
2024/01/27 19:14:01;;;;;;;14.70;10.30;;;;;;;2.09;90.47;101704.79;214118;1271;61354;-72
2024/01/27 19:18:53;;;;;;;15.40;10.50;;;;;;;2.09;90.51;101714.04;213928;1270;61236;-72
2024/01/27 19:23:46;;;;;;;13.00;9.50;;;;;;;2.09;90.23;101721.75;214076;1270;72440;-71
2024/01/27 19:28:39;;;;;;;17.30;9.40;;;;;;;2.11;90.55;101728.33;213942;1272;61254;-71
2024/01/27 19:33:32;;;;;;;14.70;8.20;;;;;;;2.11;90.41;101735.35;213972;1270;61311;-71
2024/01/27 19:38:25;;;;;;;13.10;8.50;;;;;;;2.10;90.34;101742.12;213866;1272;62024;-71
2024/01/27 19:43:19;;;;;;;16.50;8.50;;;;;;;2.07;90.19;101749.65;213878;1270;61415;-72
2024/01/27 19:48:12;;;;;;;15.30;8.20;;;;;;;2.05;90.13;101756.69;213879;1270;74078;-71
2024/01/27 19:53:09;;;;;;;11.60;6.80;;;;;;;2.05;90.15;101767.43;213884;1270;61432;-71
2024/01/27 19:58:04;;;;;;;12.50;7.20;;;;;;;2.04;90.02;101763.10;213930;1270;61301;-71
2024/01/27 20:03:00;;;;;;;9.50;5.70;;;;;;;2.04;90.34;101766.67;213915;1273;65575;-71
2024/01/27 20:07:53;;;;;;;8.40;5.50;;;;;;;2.03;90.00;101769.52;213859;1270;61328;-71
2024/01/27 20:12:50;;;;;;;8.80;5.80;;;;;;;2.02;89.99;101779.36;213909;1270;61880;-71
2024/01/27 20:17:43;;;;;;;7.40;5.20;;;;;;;2.01;90.15;101791.27;214005;1270;72672;-71
2024/01/27 20:22:36;;;;;;;11.10;5.00;;;;;;;2.01;90.09;101800.51;214176;1268;61295;-71
2024/01/27 20:27:29;;;;;;;7.30;4.00;;;;;;;2.01;90.09;101813.36;214080;1268;61278;-71
2024/01/27 20:32:22;;;;;;;8.60;4.20;;;;;;;2.02;89.86;101820.23;213838;1271;61346;-71
2024/01/27 20:37:14;;;;;;;10.90;4.70;;;;;;;2.02;89.87;101826.39;213721;1270;61411;-71
2024/01/27 20:42:09;;;;;;;9.40;4.40;;;;;;;2.02;89.91;101835.46;214080;1270;61305;-71
2024/01/27 20:47:02;;;;;;;11.90;4.40;;;;;;;2.02;89.55;101836.13;214129;1272;61320;-71
2024/01/27 20:51:55;;;;;;;8.00;4.30;;;;;;;2.01;89.46;101845.34;214106;1269;61375;-72
2024/01/27 20:56:48;;;;;;;19.70;5.00;;;;;;;2.02;89.60;101847.25;213859;1268;61416;-71
2024/01/27 21:01:41;;;;;;;8.00;3.80;;;;;;;2.02;89.42;101854.27;214150;1270;61279;-72
2024/01/27 21:06:34;;;;;;;8.00;3.50;;;;;;;2.02;89.50;101855.30;214144;1272;62385;-73
2024/01/27 21:11:26;;;;;;;7.40;3.50;;;;;;;2.03;89.24;101869.91;214134;1268;61963;-71
2024/01/27 21:16:19;;;;;;;11.40;3.20;;;;;;;2.03;89.09;101874.88;214192;1268;61330;-72
2024/01/27 21:21:12;;;;;;;8.80;3.50;;;;;;;2.03;89.05;101874.36;214108;1272;61272;-71
2024/01/27 21:26:05;;;;;;;12.40;4.00;;;;;;;2.06;89.11;101882.44;214136;1273;61384;-72
2024/01/27 21:30:58;;;;;;;11.10;3.30;;;;;;;2.06;89.11;101888.80;214080;1270;61338;-71
2024/01/27 21:35:51;;;;;;;6.80;3.00;;;;;;;2.07;88.92;101903.02;214085;1269;61326;-71
2024/01/27 21:40:43;;;;;;;8.60;3.40;;;;;;;2.07;88.93;101908.83;214139;1268;61421;-71
2024/01/27 21:45:36;;;;;;;9.10;3.30;;;;;;;2.07;88.94;101915.50;214009;1268;61358;-72
2024/01/27 21:50:29;;;;;;;9.40;2.90;;;;;;;2.07;88.50;101925.94;214074;1270;61293;-71
2024/01/27 21:55:22;;;;;;;8.40;3.30;;;;;;;2.08;88.46;101935.77;214174;1268;61937;-71
2024/01/27 22:00:16;;;;;;;9.30;2.70;;;;;;;2.09;88.57;101941.98;214139;1268;61267;-71
2024/01/27 22:05:11;;;;;;;11.90;4.20;;;;;;;2.09;88.39;101945.23;214276;1270;65950;-71
2024/01/27 22:10:04;;;;;;;9.20;3.30;;;;;;;2.10;88.24;101952.50;214070;1272;61920;-71
2024/01/27 22:14:57;;;;;;;10.60;2.70;;;;;;;2.09;88.05;101953.99;214094;1268;74711;-72
2024/01/27 22:19:50;;;;;;;6.80;2.60;;;;;;;2.09;87.80;101959.30;214124;1268;61425;-72
2024/01/27 22:24:43;;;;;;;6.40;2.50;;;;;;;2.09;87.77;101968.71;214207;1268;61319;-71
2024/01/27 22:29:37;;;;;;;10.00;3.60;;;;;;;2.10;87.58;101970.27;214090;1268;61339;-72
2024/01/27 22:34:30;;;;;;;7.70;2.70;;;;;;;2.10;87.41;101979.52;214083;1273;61306;-71
2024/01/27 22:39:23;;;;;;;10.60;2.80;;;;;;;2.11;87.37;101993.30;213933;1270;73439;-72